Погода Радугана неделю

Гомельская область, Белоруссия

24 - 30 июля
  • 24июля
    Сегодня
    +14°
    +27°
    Ясно и безоблачно
    ВремяПогодаТемператураВлажностьДавлениеВетер, м/сВероятность осадков
    00:00Ясно и безоблачно+19°C87 %748 мм2.2 м/с2 %
    03:00Ясно и безоблачно+17°C93 %747 мм2.3 м/с2 %
    06:00Ясно и безоблачно+17°C94 %748 мм2.0 м/с2 %
    09:00Ясно и безоблачно+21°C77 %748 мм3.4 м/с2 %
    12:00Ясно и безоблачно+25°C52 %748 мм4.1 м/с4 %
    15:00Ясно и безоблачно+26°C43 %747 мм4.3 м/с4 %
    18:00Ясно и безоблачно+26°C40 %747 мм5.2 м/с2 %
    21:00Ясно и безоблачно+22°C48 %746 мм3.0 м/с2 %
  • 25июля
    Четверг
    +15°
    +27°
    Пасмурно, сплошная облачность
    ВремяПогодаТемператураВлажностьДавлениеВетер, м/сВероятность осадков
    00:00Ясно и безоблачно+18°C65 %747 мм2.0 м/с2 %
    03:00Ясно и безоблачно+16°C75 %746 мм2.2 м/с2 %
    06:00Ясно и безоблачно+15°C81 %746 мм1.6 м/с2 %
    09:00Ясно и безоблачно+21°C60 %746 мм2.6 м/с2 %
    12:00Облачно с прояснениями+25°C40 %746 мм3.9 м/с2 %
    15:00Пасмурно, сплошная облачность+27°C36 %745 мм3.6 м/с2 %
    18:00Облачно с прояснениями+26°C39 %745 мм4.2 м/с2 %
    21:00Облачно с прояснениями+22°C55 %745 мм2.9 м/с2 %
  • 26июля
    Пятница
    +17°
    +28°
    Практически безоблачно
    ВремяПогодаТемператураВлажностьДавлениеВетер, м/сВероятность осадков
    00:00Небольшая облачность+19°C71 %745 мм1.6 м/с2 %
    03:00Облачно с прояснениями+17°C77 %745 мм1.9 м/с2 %
    06:00Небольшая облачность+17°C81 %746 мм1.7 м/с2 %
    09:00Облачно с прояснениями+22°C60 %746 мм2.2 м/с2 %
    12:00Небольшая облачность+26°C39 %747 мм2.6 м/с3 %
    15:00Практически безоблачно+27°C40 %747 мм3.1 м/с9 %
    18:00Облачно с прояснениями+27°C40 %747 мм4.6 м/с25 %
    21:00Облачно с прояснениями+23°C65 %748 мм2.6 м/с11 %
  • 27июля
    Суббота
    +17°
    +29°
    Ясно и безоблачно
    ВремяПогодаТемператураВлажностьДавлениеВетер, м/сВероятность осадков
    00:00Облачно с прояснениями+19°C78 %749 мм1.9 м/с3 %
    03:00Ясно и безоблачно+17°C90 %749 мм2.2 м/с3 %
    06:00Ясно и безоблачно+17°C93 %750 мм1.3 м/с2 %
    09:00Ясно и безоблачно+22°C68 %751 мм2.1 м/с2 %
    12:00Ясно и безоблачно+27°C48 %751 мм2.2 м/с5 %
    15:00Ясно и безоблачно+28°C45 %751 мм2.6 м/с9 %
    18:00Ясно и безоблачно+27°C42 %751 мм4.1 м/с17 %
    21:00Практически безоблачно+24°C58 %751 мм2.0 м/с12 %
  • 28июля
    Воскресенье
    +18°
    +30°
    Облачно с прояснениями
    ВремяПогодаТемператураВлажностьДавлениеВетер, м/сВероятность осадков
    00:00Практически безоблачно+20°C61 %751 мм1.3 м/с2 %
    03:00Ясно и безоблачно+19°C67 %751 мм1.7 м/с2 %
    06:00Облачно с прояснениями+18°C68 %751 мм1.6 м/с2 %
    09:00Облачно с прояснениями+23°C60 %752 мм2.8 м/с2 %
    12:00Облачно с прояснениями+28°C48 %752 мм3.5 м/с4 %
    15:00Облачно с прояснениями+30°C42 %751 мм4.0 м/с9 %
    18:00Небольшая облачность+29°C42 %750 мм4.8 м/с8 %
    21:00Ясно и безоблачно+26°C59 %750 мм3.3 м/с8 %
Мы используем cookies
Соглашаюсь